Time;durP1;ratioP1;P1;durP2;ratioP2;P2;SDS_P1;SDS_P2;PMS_P1;PMS_P2;Temp;Humidity;BMP_temperature;BMP_pressure;BME280_temperature;BME280_humidity;BME280_pressure;Samples;Min_cycle;Max_cycle;Signal;HPM_P1;HPM_P2
2022/03/16 00:00:10;;;;;;;3.70;3.40;;;;;;;12.70;42.11;97110.47;4915020;29;20260;-85
2022/03/16 00:02:45;;;;;;;3.17;2.87;;;;;;;13.79;42.05;97295.03;4932041;28;20223;-86
2022/03/16 00:05:12;;;;;;;3.30;3.00;;;;;;;15.62;42.07;97614.63;4937632;28;20212;-85
2022/03/16 00:07:39;;;;;;;3.03;2.73;;;;;;;16.58;42.28;97816.75;4939006;28;20258;-86
2022/03/16 00:10:07;;;;;;;3.40;3.10;;;;;;;17.01;42.31;97907.06;4937114;28;20654;-85
2022/03/16 00:12:38;;;;;;;3.47;3.17;;;;;;;12.37;42.39;97030.44;4928331;28;20227;-85
2022/03/16 00:15:14;;;;;;;2.77;2.57;;;;;;;13.79;42.38;97300.09;4933923;29;20204;-87
2022/03/16 00:17:41;;;;;;;3.10;2.90;;;;;;;14.36;42.34;97383.31;4941336;28;20373;-84
2022/03/16 00:20:08;;;;;;;3.03;2.83;;;;;;;18.42;42.30;98073.78;4931546;29;20204;-86
2022/03/16 00:22:35;;;;;;;3.30;3.00;;;;;;;15.17;42.17;97509.19;4952502;28;20303;-86
2022/03/16 00:25:01;;;;;;;3.10;2.90;;;;;;;11.39;42.17;96882.88;4964667;28;20220;-87
2022/03/16 00:27:29;;;;;;;2.87;2.63;;;;;;;17.21;42.44;97897.16;4942093;29;20218;-87
2022/03/16 00:29:59;;;;;;;3.33;2.90;;;;;;;15.28;42.34;97524.97;4921578;29;20224;-86
2022/03/16 00:32:26;;;;;;;3.03;2.83;;;;;;;15.63;42.22;97609.63;4934288;28;20247;-86
2022/03/16 00:34:52;;;;;;;3.40;3.10;;;;;;;15.77;42.04;97655.97;4905973;28;20223;-87
2022/03/16 00:37:21;;;;;;;3.00;2.80;;;;;;;11.24;42.07;96839.22;4935342;29;20679;-87
2022/03/16 00:39:48;;;;;;;3.07;2.87;;;;;;;14.69;41.97;97431.50;4912840;28;20557;-87
2022/03/16 00:42:15;;;;;;;3.23;2.93;;;;;;;16.86;41.79;97843.66;4937645;28;20243;-86
2022/03/16 00:44:42;;;;;;;3.10;2.70;;;;;;;14.78;42.32;97493.50;4920497;29;20200;-85
2022/03/16 00:47:09;;;;;;;3.70;3.40;;;;;;;13.51;42.38;97250.50;4930179;29;20668;-85
2022/03/16 00:49:35;;;;;;;3.03;2.83;;;;;;;12.77;42.05;97107.53;4933771;29;20356;-86
2022/03/16 00:52:02;;;;;;;3.10;2.83;;;;;;;13.19;42.65;97173.00;4943383;28;20286;-85
2022/03/16 00:54:30;;;;;;;3.37;3.07;;;;;;;15.11;42.20;97511.41;4968475;28;20221;-85
2022/03/16 00:56:57;;;;;;;2.80;2.60;;;;;;;17.98;42.19;98013.03;4936876;28;20196;-86
2022/03/16 00:59:27;;;;;;;3.27;3.00;;;;;;;15.72;42.48;97620.25;4960737;28;20565;-86
2022/03/16 01:01:53;;;;;;;3.13;2.83;;;;;;;16.14;42.23;97754.34;4932519;29;20250;-86
2022/03/16 01:04:29;;;;;;;3.17;2.87;;;;;;;15.07;41.97;97503.56;4944505;28;20267;-86
2022/03/16 01:06:57;;;;;;;3.33;3.03;;;;;;;16.08;42.10;97718.53;4959627;28;20242;-85
2022/03/16 01:09:24;;;;;;;3.10;2.90;;;;;;;15.53;42.27;97601.47;4936488;28;20203;-86
2022/03/16 01:41:32;;;;;;;2.77;2.57;;;;;;;16.74;41.72;97855.72;5104094;23;20223;-89
2022/03/16 01:44:33;;;;;;;3.10;2.80;;;;;;;12.51;42.00;97053.13;4909498;29;20236;-89
2022/03/16 01:51:28;;;;;;;3.47;3.17;;;;;;;18.64;41.85;98125.84;4942109;29;20166;-89
2022/03/16 01:54:34;;;;;;;2.90;2.70;;;;;;;18.65;41.93;98125.03;4929830;29;20257;-89
2022/03/16 02:00:41;;;;;;;2.87;2.67;;;;;;;17.20;41.97;97872.53;4935398;29;20182;-88
2022/03/16 02:03:34;;;;;;;2.70;2.50;;;;;;;18.72;41.64;98190.75;4910843;29;20202;-89
2022/03/16 02:06:27;;;;;;;2.97;2.77;;;;;;;13.41;41.29;97319.78;4914770;29;20174;-90
2022/03/16 02:10:03;;;;;;;2.87;2.67;;;;;;;12.43;41.38;97054.34;4938059;29;20188;-90
2022/03/16 02:13:19;;;;;;;2.70;2.50;;;;;;;11.51;41.34;96881.06;4948699;29;20169;-89
2022/03/16 02:15:46;;;;;;;2.90;2.70;;;;;;;13.96;41.14;97387.78;4950563;29;20203;-87
2022/03/16 02:18:14;;;;;;;2.93;2.73;;;;;;;14.58;41.54;97404.78;4921187;29;20681;-87
2022/03/16 02:20:45;;;;;;;3.20;3.00;;;;;;;12.68;41.40;97071.72;4937207;29;20686;-87
2022/03/16 02:23:12;;;;;;;2.93;2.73;;;;;;;14.18;41.55;97329.22;4937070;29;20252;-87
2022/03/16 02:25:54;;;;;;;2.50;2.30;;;;;;;17.62;41.36;97922.19;4954323;29;20200;-87
2022/03/16 02:28:24;;;;;;;2.80;2.60;;;;;;;17.60;41.37;97918.69;4922027;29;20295;-87
2022/03/16 02:30:52;;;;;;;2.83;2.63;;;;;;;18.34;41.36;98047.03;4936531;29;20687;-87
2022/03/16 02:33:21;;;;;;;3.13;2.90;;;;;;;17.61;41.41;97922.94;4936990;29;20231;-86
2022/03/16 02:35:48;;;;;;;2.80;2.60;;;;;;;16.58;41.35;97745.72;4953729;29;20215;-83
2022/03/16 02:38:14;;;;;;;2.70;2.50;;;;;;;14.39;41.12;97391.06;4921089;29;20259;-87
2022/03/16 02:40:41;;;;;;;2.80;2.60;;;;;;;16.82;41.59;97803.69;4921040;29;20521;-86
2022/03/16 02:43:08;;;;;;;3.00;2.80;;;;;;;15.99;41.17;97643.66;4936131;29;20733;-87
2022/03/16 02:45:35;;;;;;;2.80;2.60;;;;;;;17.63;41.24;97936.63;4936863;29;20663;-87
2022/03/16 02:48:05;;;;;;;2.70;2.50;;;;;;;16.28;41.19;97767.75;4953302;29;20564;-87
2022/03/16 02:50:34;;;;;;;2.80;2.60;;;;;;;15.61;41.23;97610.34;4936792;29;20208;-87
2022/03/16 02:53:04;;;;;;;2.97;2.73;;;;;;;17.57;41.12;97934.66;4901775;29;20224;-86
2022/03/16 02:55:51;;;;;;;2.50;2.30;;;;;;;15.28;41.54;97600.91;4926436;29;20201;-87
2022/03/16 02:58:18;;;;;;;2.90;2.70;;;;;;;13.63;41.38;97254.59;4920282;29;20204;-87
2022/03/16 03:00:45;;;;;;;2.73;2.53;;;;;;;12.70;41.02;97163.41;4917429;29;20197;-87
2022/03/16 03:03:12;;;;;;;2.80;2.60;;;;;;;14.58;41.41;97430.09;4925863;29;20230;-87
2022/03/16 03:05:41;;;;;;;2.63;2.43;;;;;;;16.57;41.41;97775.28;4953548;29;20627;-87
2022/03/16 03:08:09;;;;;;;2.80;2.60;;;;;;;18.19;41.26;98080.22;4936269;29;20207;-87
2022/03/16 03:10:36;;;;;;;2.93;2.67;;;;;;;16.32;41.62;97755.31;4919084;29;20196;-88
2022/03/16 03:13:02;;;;;;;3.00;2.80;;;;;;;15.96;41.24;97674.78;4917774;29;20233;-87
2022/03/16 03:15:29;;;;;;;2.77;2.57;;;;;;;17.49;41.20;97943.53;4952965;29;20228;-86
2022/03/16 03:17:56;;;;;;;2.90;2.70;;;;;;;13.72;41.28;97330.84;4952699;29;20193;-87
2022/03/16 03:20:23;;;;;;;2.50;2.30;;;;;;;12.86;41.44;97126.56;4919065;29;20201;-84
2022/03/16 03:22:49;;;;;;;2.80;2.60;;;;;;;13.15;41.54;97190.41;4934287;29;20227;-87
2022/03/16 03:25:16;;;;;;;2.60;2.40;;;;;;;13.65;41.39;97272.34;4935873;29;20197;-86
2022/03/16 03:27:43;;;;;;;2.90;2.70;;;;;;;13.02;41.46;97277.13;4952853;29;20224;-86
2022/03/16 03:30:10;;;;;;;3.10;2.80;;;;;;;15.38;41.28;97581.28;4935775;29;20239;-87
2022/03/16 03:32:37;;;;;;;2.80;2.60;;;;;;;11.56;41.37;96952.63;4918435;29;20262;-87
2022/03/16 03:40:24;;;;;;;2.80;2.60;;;;;;;13.26;41.76;97292.81;5090438;23;20201;-90
2022/03/16 03:43:14;;;;;;;3.17;2.80;;;;;;;12.70;41.12;97164.28;4942078;29;20205;-90
2022/03/16 03:46:01;;;;;;;2.23;2.13;;;;;;;12.73;41.67;97164.44;4914879;29;20169;-91
2022/03/16 03:48:53;;;;;;;2.77;2.57;;;;;;;12.35;41.10;97123.56;4910907;29;20179;-90
2022/03/16 03:51:52;;;;;;;2.80;2.60;;;;;;;11.28;41.32;96961.88;4928198;29;20166;-90
2022/03/16 03:54:40;;;;;;;2.67;2.47;;;;;;;17.30;41.50;97938.28;4925417;29;20182;-90
2022/03/16 03:58:35;;;;;;;2.90;2.70;;;;;;;18.80;41.52;98206.44;4942143;29;20165;-91
2022/03/16 04:02:26;;;;;;;2.40;2.20;;;;;;;18.80;41.53;98208.97;4943080;29;20154;-90
2022/03/16 04:05:10;;;;;;;2.60;2.40;;;;;;;12.03;41.28;97152.69;4939079;29;20205;-86
2022/03/16 04:07:39;;;;;;;2.70;2.50;;;;;;;17.46;41.31;97983.16;4932116;29;20256;-87
2022/03/16 04:10:09;;;;;;;2.53;2.33;;;;;;;13.84;41.35;97356.78;4931000;29;20201;-87
2022/03/16 04:12:39;;;;;;;2.60;2.40;;;;;;;14.71;40.67;97588.41;4930010;29;20291;-86
2022/03/16 04:15:06;;;;;;;2.70;2.50;;;;;;;17.44;41.43;97988.16;4912804;29;20712;-86
2022/03/16 04:17:33;;;;;;;2.70;2.50;;;;;;;17.80;41.50;98089.19;4916074;29;20232;-84
2022/03/16 04:19:59;;;;;;;2.27;2.10;;;;;;;15.66;41.43;97687.47;4932122;29;20264;-86
2022/03/16 04:22:27;;;;;;;2.60;2.40;;;;;;;14.42;41.74;97588.44;4931872;29;20229;-86
2022/03/16 04:24:59;;;;;;;2.50;2.30;;;;;;;14.03;41.40;97417.66;4917338;29;20256;-86
2022/03/16 04:27:26;;;;;;;3.20;2.90;;;;;;;13.36;41.32;97283.31;4931764;29;20200;-86
2022/03/16 04:29:53;;;;;;;2.90;2.70;;;;;;;13.42;41.18;97335.78;4931684;29;20763;-86
2022/03/16 04:32:20;;;;;;;2.90;2.70;;;;;;;12.27;41.43;97164.22;4912574;29;20707;-86
2022/03/16 04:34:56;;;;;;;2.47;2.27;;;;;;;16.42;41.30;97855.59;4932211;29;20219;-86
2022/03/16 04:37:36;;;;;;;2.40;2.20;;;;;;;13.29;41.20;97316.53;4911993;29;20220;-86
2022/03/16 04:40:03;;;;;;;2.63;2.43;;;;;;;13.47;41.24;97297.41;4933396;29;20212;-86
2022/03/16 04:42:33;;;;;;;2.40;2.20;;;;;;;11.64;41.16;97009.34;4934804;29;20657;-86
2022/03/16 04:45:02;;;;;;;2.67;2.47;;;;;;;12.15;41.30;97134.16;4919259;29;20197;-86
2022/03/16 04:47:29;;;;;;;2.53;2.23;;;;;;;15.24;41.25;97663.16;4933399;29;20625;-85
2022/03/16 04:49:56;;;;;;;2.30;2.10;;;;;;;17.42;41.18;97997.34;4917756;29;20826;-86
2022/03/16 04:52:22;;;;;;;2.80;2.60;;;;;;;13.65;41.18;97343.03;4935335;29;20248;-86
2022/03/16 04:54:49;;;;;;;3.03;2.83;;;;;;;12.94;41.42;97263.19;4919166;29;20683;-85
2022/03/16 04:57:16;;;;;;;3.07;2.80;;;;;;;15.36;41.16;97637.63;4923519;29;20221;-87
2022/03/16 04:59:43;;;;;;;3.77;3.47;;;;;;;13.00;41.42;97217.28;4935368;29;20291;-87
2022/03/16 05:02:10;;;;;;;4.30;3.90;;;;;;;13.80;41.28;97449.97;4932384;29;20231;-87
2022/03/16 05:04:37;;;;;;;4.67;4.27;;;;;;;18.04;41.32;98115.06;4936204;29;20228;-87
2022/03/16 05:07:05;;;;;;;4.80;4.10;;;;;;;17.58;41.39;98057.47;4935257;29;20205;-86
2022/03/16 05:09:32;;;;;;;4.77;4.37;;;;;;;14.17;41.46;97485.00;4916205;29;20632;-87
2022/03/16 05:12:00;;;;;;;4.90;4.43;;;;;;;12.37;41.48;97139.66;4927920;29;20716;-86
2022/03/16 05:14:27;;;;;;;4.50;4.10;;;;;;;11.16;41.43;96983.75;4933333;29;20228;-86
2022/03/16 05:16:54;;;;;;;4.40;4.00;;;;;;;15.77;41.69;97734.53;4916336;29;20213;-87
2022/03/16 05:19:23;;;;;;;4.33;3.93;;;;;;;14.59;41.67;97540.53;4930162;29;20651;-85
2022/03/16 05:21:49;;;;;;;5.50;3.90;;;;;;;17.39;41.71;98032.75;4929881;29;20226;-85
2022/03/16 05:24:18;;;;;;;3.90;3.60;;;;;;;16.92;41.65;97958.22;4918410;29;20213;-84
2022/03/16 05:26:45;;;;;;;3.60;3.30;;;;;;;18.20;42.55;98183.72;4912940;29;20556;-86
2022/03/16 05:29:11;;;;;;;4.27;3.87;;;;;;;17.81;42.22;98120.59;4895928;29;20656;-84
2022/03/16 05:31:38;;;;;;;4.07;3.67;;;;;;;17.90;42.16;98147.38;4928438;29;20233;-89
2022/03/16 05:34:04;;;;;;;3.90;3.60;;;;;;;17.95;42.46;98153.56;4919649;29;22113;-86
2022/03/16 05:36:31;;;;;;;3.77;3.47;;;;;;;16.84;43.05;97958.59;4929293;29;20232;-87
2022/03/16 05:39:01;;;;;;;3.90;3.60;;;;;;;17.99;42.36;98180.94;4927645;29;20211;-86
2022/03/16 05:41:28;;;;;;;3.83;3.53;;;;;;;17.61;42.33;98103.38;4934945;29;20205;-84
2022/03/16 05:43:54;;;;;;;4.07;3.70;;;;;;;18.33;42.51;98236.16;4935235;29;20208;-84
2022/03/16 05:46:21;;;;;;;4.37;3.97;;;;;;;17.93;42.44;98179.72;4904115;29;20241;-85
2022/03/16 05:48:48;;;;;;;12.40;4.47;;;;;;;18.28;42.45;98241.00;4904563;29;20194;-86
2022/03/16 05:51:14;;;;;;;4.93;4.43;;;;;;;18.52;42.13;98271.97;4904476;29;20286;-87
2022/03/16 05:53:41;;;;;;;7.50;4.40;;;;;;;18.04;42.58;98197.31;4935586;29;20302;-86
2022/03/16 05:56:07;;;;;;;5.27;4.80;;;;;;;17.64;42.66;98132.41;4919568;29;20224;-86
2022/03/16 05:58:34;;;;;;;4.90;4.40;;;;;;;17.46;42.47;98116.16;4903728;29;20719;-86
2022/03/16 06:01:01;;;;;;;5.03;4.57;;;;;;;17.95;43.23;98196.81;4914785;29;20240;-87
2022/03/16 06:03:28;;;;;;;5.00;4.50;;;;;;;18.01;42.57;98214.97;4924356;29;20899;-86
2022/03/16 06:05:54;;;;;;;7.77;7.07;;;;;;;17.73;42.20;98176.09;4930851;29;20213;-86
2022/03/16 06:08:21;;;;;;;8.80;7.33;;;;;;;18.65;41.93;98332.94;4912279;29;20210;-86
2022/03/16 06:10:48;;;;;;;10.00;9.03;;;;;;;17.96;42.54;98211.28;4935195;29;20655;-84
2022/03/16 06:13:14;;;;;;;10.03;9.03;;;;;;;17.46;42.11;98131.41;4935049;29;20252;-85
2022/03/16 06:15:42;;;;;;;9.63;8.67;;;;;;;17.99;42.53;98234.34;4916222;29;20304;-85
2022/03/16 06:18:09;;;;;;;8.47;7.63;;;;;;;18.14;42.14;98247.88;4903724;29;20659;-85
2022/03/16 06:20:35;;;;;;;9.63;8.70;;;;;;;18.09;42.65;98233.19;4903526;29;20288;-86
2022/03/16 06:23:04;;;;;;;8.57;7.77;;;;;;;17.97;42.35;98217.25;4922510;29;20225;-85
2022/03/16 06:25:36;;;;;;;7.50;6.80;;;;;;;17.44;42.50;98143.13;4911694;29;20190;-86
2022/03/16 06:28:02;;;;;;;7.87;7.07;;;;;;;17.69;42.29;98174.22;4901435;29;20467;-86
2022/03/16 06:30:29;;;;;;;7.43;6.73;;;;;;;18.38;42.43;98300.94;4902935;29;20231;-86
2022/03/16 06:32:55;;;;;;;7.20;6.60;;;;;;;18.11;42.26;98267.19;4903316;29;20782;-86
2022/03/16 06:35:22;;;;;;;6.83;6.13;;;;;;;17.93;42.55;98239.09;4934276;29;20307;-83
2022/03/16 06:37:49;;;;;;;6.90;6.27;;;;;;;16.89;42.32;98051.09;4918671;29;20201;-84
2022/03/16 06:40:15;;;;;;;6.67;5.63;;;;;;;18.09;42.72;98266.25;4913516;29;20242;-85
2022/03/16 06:42:53;;;;;;;6.27;5.77;;;;;;;18.22;42.32;98291.53;4911836;29;20255;-83
2022/03/16 06:45:20;;;;;;;5.93;5.33;;;;;;;18.43;42.61;98336.00;4918384;29;20243;-83
2022/03/16 06:47:47;;;;;;;5.90;5.40;;;;;;;17.79;42.47;98226.41;4934197;29;20726;-84
2022/03/16 06:50:13;;;;;;;6.07;5.47;;;;;;;18.14;42.34;98292.78;4934011;29;20927;-82
2022/03/16 06:52:40;;;;;;;6.60;5.83;;;;;;;17.50;42.57;98189.22;4902232;29;20311;-83
2022/03/16 06:55:07;;;;;;;5.67;5.13;;;;;;;18.07;42.52;98290.72;4920059;29;20249;-83
2022/03/16 06:57:34;;;;;;;4.80;4.40;;;;;;;18.07;42.41;98283.97;4898677;29;20557;-84
2022/03/16 07:00:01;;;;;;;5.10;4.60;;;;;;;18.06;42.40;98291.53;4901935;29;20299;-83
2022/03/16 07:02:28;;;;;;;4.70;4.30;;;;;;;18.13;42.43;98298.69;4933599;29;20224;-83
2022/03/16 07:04:54;;;;;;;7.63;6.43;;;;;;;18.31;41.92;98342.03;4915949;29;20607;-84
2022/03/16 07:07:25;;;;;;;7.63;6.80;;;;;;;18.16;41.73;98304.81;4918184;29;20263;-84
2022/03/16 07:09:51;;;;;;;8.23;6.87;;;;;;;17.95;42.31;98264.63;4900528;29;20257;-84
2022/03/16 07:12:18;;;;;;;6.97;6.17;;;;;;;18.04;42.12;98282.91;4901052;29;20305;-84
2022/03/16 07:14:45;;;;;;;6.83;5.80;;;;;;;18.13;42.20;98306.31;4936523;29;20257;-84
2022/03/16 07:17:11;;;;;;;6.63;6.03;;;;;;;18.10;42.15;98313.78;4917072;29;20293;-84
2022/03/16 07:19:38;;;;;;;7.80;5.83;;;;;;;18.18;42.00;98312.53;4899556;29;20663;-83
2022/03/16 07:22:04;;;;;;;7.00;6.10;;;;;;;17.80;42.13;98251.91;4899679;29;20275;-84
2022/03/16 07:24:31;;;;;;;7.17;6.13;;;;;;;18.25;41.96;98332.41;4914654;29;20241;-84
2022/03/16 07:27:02;;;;;;;5.60;5.10;;;;;;;17.97;42.09;98288.47;4915467;29;20748;-84
2022/03/16 07:29:29;;;;;;;6.13;5.53;;;;;;;18.27;42.23;98329.97;4916621;29;20223;-84
2022/03/16 07:31:55;;;;;;;6.20;5.60;;;;;;;18.23;42.04;98327.25;4931660;29;20303;-84
2022/03/16 07:34:22;;;;;;;5.30;4.80;;;;;;;17.71;42.11;98236.16;4916053;29;20651;-85
2022/03/16 07:36:49;;;;;;;6.60;5.43;;;;;;;18.51;42.32;98374.59;4916488;29;20232;-84
2022/03/16 07:39:15;;;;;;;5.50;5.00;;;;;;;18.49;42.40;98377.06;4912973;29;20296;-84
2022/03/16 07:41:42;;;;;;;4.73;4.33;;;;;;;18.10;42.14;98323.94;4913643;29;20267;-84
2022/03/16 07:44:08;;;;;;;5.40;4.90;;;;;;;18.05;42.48;98303.34;4900643;29;20205;-82
2022/03/16 07:46:35;;;;;;;5.23;4.37;;;;;;;17.89;42.57;98272.75;4915679;29;21038;-84
2022/03/16 07:49:02;;;;;;;5.17;4.57;;;;;;;18.14;42.26;98326.75;4934489;29;20212;-84
2022/03/16 07:51:29;;;;;;;4.83;4.40;;;;;;;18.29;42.54;98359.78;4902746;29;20205;-85
2022/03/16 07:53:55;;;;;;;4.77;4.37;;;;;;;18.16;42.14;98319.19;4897089;29;20640;-84
2022/03/16 07:56:22;;;;;;;5.07;4.67;;;;;;;18.06;42.07;98307.63;4923154;29;20259;-85
2022/03/16 07:58:51;;;;;;;4.50;4.10;;;;;;;17.82;42.10;98274.88;4930977;29;20232;-84
2022/03/16 08:01:18;;;;;;;4.57;4.17;;;;;;;18.24;42.39;98344.25;4913122;29;20296;-83
2022/03/16 08:03:45;;;;;;;4.20;3.83;;;;;;;17.85;42.89;98277.59;4898971;29;20319;-85
2022/03/16 08:06:11;;;;;;;4.60;4.20;;;;;;;18.50;42.41;98390.66;4915783;29;20239;-84
2022/03/16 08:08:39;;;;;;;4.10;3.70;;;;;;;16.87;42.30;98106.84;4914805;29;20632;-85
2022/03/16 08:11:06;;;;;;;4.20;3.80;;;;;;;18.33;42.29;98366.81;4931226;29;20213;-84
2022/03/16 08:13:34;;;;;;;4.03;3.73;;;;;;;18.14;42.59;98325.84;4920837;23;20648;-84
2022/03/16 08:16:01;;;;;;;4.20;3.80;;;;;;;17.99;42.44;98312.28;4912240;29;20249;-84
2022/03/16 08:18:28;;;;;;;3.93;3.63;;;;;;;18.23;42.11;98353.50;4928800;29;20209;-84
2022/03/16 08:20:56;;;;;;;3.70;3.40;;;;;;;17.94;41.99;98306.97;4914131;29;20225;-83
2022/03/16 08:23:23;;;;;;;4.47;4.00;;;;;;;17.85;42.08;98296.28;4913812;29;20776;-84
2022/03/16 08:25:52;;;;;;;4.53;4.13;;;;;;;18.04;42.03;98321.06;4911777;29;20676;-84
2022/03/16 08:28:18;;;;;;;5.00;4.60;;;;;;;18.21;42.55;98356.81;4881815;29;20403;-83
2022/03/16 08:30:45;;;;;;;5.60;4.30;;;;;;;17.77;42.44;98271.22;4872614;29;20641;-84
2022/03/16 08:33:12;;;;;;;4.43;4.03;;;;;;;18.50;42.42;98399.16;4885439;29;20221;-85
2022/03/16 08:35:39;;;;;;;4.53;4.13;;;;;;;18.23;42.54;98350.16;4870421;29;20218;-84
2022/03/16 08:38:05;;;;;;;4.83;4.33;;;;;;;18.00;41.59;98316.63;4892119;29;20210;-84
2022/03/16 08:40:32;;;;;;;5.23;4.77;;;;;;;18.49;41.95;98402.50;4899216;29;20305;-84
2022/03/16 08:42:59;;;;;;;5.00;4.50;;;;;;;18.05;42.50;98326.25;4893957;29;20252;-84
2022/03/16 08:45:25;;;;;;;5.27;4.77;;;;;;;17.91;42.33;98305.91;4903171;29;20233;-82
2022/03/16 08:47:52;;;;;;;4.63;4.23;;;;;;;17.82;41.84;98287.59;4894911;29;20253;-85
2022/03/16 08:50:18;;;;;;;4.50;4.10;;;;;;;18.28;42.51;98375.84;4889545;29;20234;-84
2022/03/16 08:52:45;;;;;;;4.57;4.17;;;;;;;17.03;42.47;98154.31;4902981;29;20281;-83
2022/03/16 08:55:14;;;;;;;5.10;4.60;;;;;;;17.73;42.44;98285.41;4899164;29;20261;-84
2022/03/16 08:57:44;;;;;;;5.07;4.57;;;;;;;18.29;42.15;98382.69;4896782;29;20233;-86
2022/03/16 09:00:15;;;;;;;5.03;4.53;;;;;;;18.27;42.41;98382.59;4894889;29;20206;-82
2022/03/16 09:02:42;;;;;;;4.50;4.10;;;;;;;18.21;42.21;98377.16;4927203;29;20218;-84
2022/03/16 09:05:09;;;;;;;4.40;4.00;;;;;;;18.38;42.26;98418.84;4904728;29;20628;-85
2022/03/16 09:07:38;;;;;;;4.20;3.90;;;;;;;16.88;42.08;98155.97;4896513;29;20210;-84
2022/03/16 09:10:06;;;;;;;4.23;3.93;;;;;;;18.05;42.50;98358.41;4906632;29;20793;-83
2022/03/16 09:12:32;;;;;;;5.40;4.90;;;;;;;17.78;42.06;98300.94;4894759;29;20739;-85
2022/03/16 09:14:59;;;;;;;4.63;4.23;;;;;;;17.96;41.80;98335.91;4881902;29;20241;-84
2022/03/16 09:17:26;;;;;;;4.67;4.27;;;;;;;18.13;42.34;98368.25;4897737;29;20643;-81
2022/03/16 09:19:52;;;;;;;5.30;4.80;;;;;;;17.44;42.17;98236.31;4913463;29;20205;-84
2022/03/16 09:22:20;;;;;;;5.03;4.63;;;;;;;17.68;42.38;98280.88;4901346;29;20659;-84
2022/03/16 09:24:48;;;;;;;5.17;4.67;;;;;;;18.47;42.48;98421.03;4901376;29;20300;-85
2022/03/16 09:27:16;;;;;;;6.87;4.50;;;;;;;16.87;42.21;98141.53;4905834;29;20261;-84
2022/03/16 09:29:46;;;;;;;6.03;4.17;;;;;;;18.13;42.47;98358.06;4901116;29;20205;-84
2022/03/16 09:32:13;;;;;;;4.60;4.20;;;;;;;17.74;42.45;98288.84;4900993;29;20232;-82
2022/03/16 09:34:40;;;;;;;4.50;4.10;;;;;;;18.28;42.29;98406.38;4885680;29;20226;-82
2022/03/16 09:37:08;;;;;;;3.97;3.63;;;;;;;18.24;42.27;98373.94;4900672;29;20233;-81
2022/03/16 09:39:35;;;;;;;5.73;4.10;;;;;;;18.08;42.65;98340.78;4898205;29;20233;-81
2022/03/16 09:42:03;;;;;;;4.70;4.03;;;;;;;17.89;42.07;98304.97;4896688;29;20237;-82
2022/03/16 09:44:32;;;;;;;4.30;3.80;;;;;;;17.82;42.30;98296.09;4912618;29;20202;-82
2022/03/16 09:47:00;;;;;;;3.90;3.50;;;;;;;18.19;41.89;98357.53;4916015;29;20201;-82
2022/03/16 09:49:27;;;;;;;5.53;3.50;;;;;;;17.74;42.36;98282.06;4885018;29;20205;-82
2022/03/16 09:51:54;;;;;;;4.53;3.40;;;;;;;17.81;42.18;98294.38;4915614;29;20277;-83
2022/03/16 09:54:21;;;;;;;3.67;3.37;;;;;;;17.83;42.25;98297.00;4884268;29;20202;-83
2022/03/16 09:56:48;;;;;;;3.93;3.63;;;;;;;18.01;42.61;98329.41;4908530;29;20662;-83
2022/03/16 09:59:15;;;;;;;4.03;3.67;;;;;;;17.77;42.15;98278.84;4884920;29;20206;-82
2022/03/16 10:01:44;;;;;;;3.23;3.03;;;;;;;17.84;42.03;98291.09;4884641;29;20245;-83
2022/03/16 10:04:11;;;;;;;3.57;3.27;;;;;;;18.07;42.62;98327.22;4884382;29;20205;-83
2022/03/16 10:06:40;;;;;;;3.80;3.33;;;;;;;18.19;42.48;98343.16;4884155;29;20205;-83
2022/03/16 10:15:04;;;;;;;3.13;2.93;;;;;;;17.75;42.51;98275.34;4902849;29;20213;-82
2022/03/16 10:17:43;;;;;;;3.37;3.07;;;;;;;17.94;41.98;98300.97;4897921;29;20228;-82
2022/03/16 10:20:23;;;;;;;3.50;3.20;;;;;;;18.49;42.02;98405.06;4906399;29;20556;-83
2022/03/16 10:23:00;;;;;;;4.13;3.73;;;;;;;18.20;42.24;98344.88;4903396;29;20726;-83
2022/03/16 10:25:27;;;;;;;4.40;4.00;;;;;;;17.75;42.27;98281.31;4917653;29;20289;-83
2022/03/16 10:28:16;;;;;;;4.77;4.37;;;;;;;18.12;42.59;98330.88;4899301;29;20653;-83
2022/03/16 10:30:55;;;;;;;5.53;4.33;;;;;;;18.33;42.64;98355.75;4915655;29;20218;-83
2022/03/16 10:33:32;;;;;;;4.10;3.80;;;;;;;18.23;42.53;98339.09;4903576;29;20225;-84
2022/03/16 10:36:12;;;;;;;5.87;3.83;;;;;;;16.96;42.51;98103.97;4899790;29;20275;-83
2022/03/16 10:38:47;;;;;;;4.27;3.87;;;;;;;17.85;42.75;98275.94;4885599;29;20284;-84
2022/03/16 10:46:52;;;;;;;5.73;3.57;;;;;;;18.12;42.60;98307.13;4913120;29;20217;-82
2022/03/16 10:49:22;;;;;;;4.13;3.73;;;;;;;18.10;42.50;98303.59;4884516;29;20296;-82
2022/03/16 10:52:01;;;;;;;3.23;3.00;;;;;;;18.29;42.20;98336.03;4897878;29;20205;-82
2022/03/16 10:54:28;;;;;;;5.60;3.10;;;;;;;18.21;42.74;98310.16;4881089;29;20332;-84
2022/03/16 10:56:56;;;;;;;3.80;3.50;;;;;;;18.27;42.58;98324.06;4880848;29;20240;-83
2022/03/16 10:59:27;;;;;;;3.37;2.97;;;;;;;17.83;42.37;98243.59;4899302;29;20647;-84
2022/03/16 11:01:53;;;;;;;3.33;3.03;;;;;;;17.83;42.70;98239.38;4896238;29;20312;-83
2022/03/16 11:04:21;;;;;;;3.00;2.80;;;;;;;18.01;42.48;98287.84;4891035;29;20217;-81
2022/03/16 11:06:48;;;;;;;2.80;2.60;;;;;;;17.90;42.52;98256.72;4898014;29;20739;-81
2022/03/16 11:09:17;;;;;;;3.50;3.03;;;;;;;17.70;42.45;98225.91;4916789;29;20227;-82
2022/03/16 11:14:29;;;;;;;3.90;2.70;;;;;;;18.00;42.57;98264.06;4913265;29;20232;-82
2022/03/16 11:16:57;;;;;;;3.20;2.87;;;;;;;18.09;42.62;98284.91;4900098;29;20260;-82
2022/03/16 11:19:24;;;;;;;3.60;3.13;;;;;;;18.04;42.36;98266.00;4904556;29;20743;-81
2022/03/16 11:22:11;;;;;;;3.40;3.10;;;;;;;18.27;42.24;98291.78;4876180;29;20201;-82
2022/03/16 11:24:47;;;;;;;4.10;3.70;;;;;;;18.16;42.40;98270.88;4898289;29;20217;-82
2022/03/16 11:27:17;;;;;;;3.80;3.50;;;;;;;18.50;42.11;98320.25;4897551;29;20632;-82
2022/03/16 11:30:07;;;;;;;4.10;3.60;;;;;;;18.26;42.60;98277.34;4898222;29;20215;-82
2022/03/16 11:32:36;;;;;;;3.20;3.00;;;;;;;18.39;42.81;98303.56;4900115;29;20330;-82
2022/03/16 11:35:03;;;;;;;3.43;3.13;;;;;;;18.05;42.48;98241.41;4887416;29;20933;-81
2022/03/16 11:37:50;;;;;;;4.10;3.37;;;;;;;18.27;42.52;98279.06;4909089;29;20249;-83
2022/03/16 11:40:26;;;;;;;3.40;3.10;;;;;;;18.13;42.67;98263.97;4907775;29;20292;-82
2022/03/16 11:43:04;;;;;;;3.43;3.13;;;;;;;18.50;42.56;98319.41;4897241;29;20304;-82
2022/03/16 11:45:37;;;;;;;3.30;3.00;;;;;;;18.27;42.49;98280.81;4916570;29;20608;-82
2022/03/16 11:48:33;;;;;;;3.10;2.90;;;;;;;18.50;42.57;98316.84;4902372;29;20220;-82
2022/03/16 11:51:08;;;;;;;3.43;3.13;;;;;;;18.50;42.50;98319.41;4911844;29;20199;-82
2022/03/16 11:53:51;;;;;;;3.40;3.10;;;;;;;18.31;42.38;98296.25;4911114;29;20221;-82
2022/03/16 11:56:20;;;;;;;3.40;3.10;;;;;;;18.09;42.41;98251.84;4924872;29;20653;-83
2022/03/16 11:58:52;;;;;;;3.30;3.00;;;;;;;18.00;42.21;98231.00;4930354;29;20214;-82
2022/03/16 12:01:32;;;;;;;3.63;3.33;;;;;;;17.41;42.32;98125.16;4887577;29;20209;-82
2022/03/16 12:04:32;;;;;;;3.40;3.10;;;;;;;18.50;42.28;98304.13;4883094;29;20241;-83
2022/03/16 12:07:17;;;;;;;3.33;3.03;;;;;;;18.22;42.42;98273.75;4903136;29;20224;-82
2022/03/16 12:09:53;;;;;;;3.70;3.40;;;;;;;18.12;42.59;98235.88;4909571;29;20202;-83
2022/03/16 12:15:11;;;;;;;3.17;2.60;;;;;;;18.48;42.04;98293.88;4910753;29;20202;-83
2022/03/16 12:17:39;;;;;;;3.00;2.80;;;;;;;16.43;42.15;97941.97;4909804;29;20739;-83
2022/03/16 12:20:10;;;;;;;3.27;2.97;;;;;;;18.50;42.73;98302.44;4910427;29;20739;-84
2022/03/16 12:22:47;;;;;;;3.90;3.50;;;;;;;17.75;42.56;98164.38;4929930;29;20660;-82
2022/03/16 12:25:25;;;;;;;3.20;2.90;;;;;;;18.50;42.45;98294.81;4917420;29;20258;-83
2022/03/16 12:30:50;;;;;;;3.23;2.93;;;;;;;18.09;42.32;98221.31;4914132;29;20229;-84
2022/03/16 12:33:24;;;;;;;3.47;3.27;;;;;;;16.31;42.34;97900.66;4927754;29;20235;-83
2022/03/16 12:36:11;;;;;;;3.57;3.03;;;;;;;16.86;42.20;98028.97;4924868;29;20199;-83
2022/03/16 12:38:39;;;;;;;3.47;3.17;;;;;;;16.02;42.65;97861.81;4909509;29;20213;-83
2022/03/16 12:43:54;;;;;;;3.60;3.30;;;;;;;18.17;42.53;98225.16;4925407;29;20276;-82
2022/03/16 12:46:25;;;;;;;3.10;2.90;;;;;;;17.65;42.50;98126.50;4927430;29;20206;-83
2022/03/16 12:48:56;;;;;;;3.40;3.10;;;;;;;17.94;42.29;98173.84;4912190;29;20234;-82
2022/03/16 12:51:44;;;;;;;3.23;2.97;;;;;;;17.75;42.08;98140.59;4913288;29;20352;-82
2022/03/16 12:54:13;;;;;;;3.13;2.93;;;;;;;16.38;42.21;97945.88;4924381;29;20234;-82
2022/03/16 12:56:44;;;;;;;4.87;3.20;;;;;;;18.27;42.50;98239.25;4913315;29;20264;-82